»·PEaware :: N143VT KMSO-KBIL

N143VT :: KMSO-KBIL

FLIGHT INFORMATION

Flight Status: Arrived
Operator: Privately registered:
United States
More flights under this callsign
Pilot: Anonymous 16492 (16492)
Aircraft: BOMBARDIER BD-100 CHALLENGER 300
(CL30)
More flights by this aircraft type
Origin: KMSO Missoula Intl
United States
Destination: KBIL Billings Logan Intl
United States
More flights between these airports :: More routes between these airports
Route: +GRZLY3 MSO V2 HLN V247 PELJE CRAZI CRAZI2
File this flight plan on PilotEdge
Remarks:
Altitude:
(Current/Filed)
29,000ft
Speed:
(Current/Filed)
450kts
Departed: 10-Jul-18 04:50 PM
Arrived: 10-Jul-18 05:39 PM
Distance/Time
Traveled:
239nm/0:49
Distance/Time
To Go:
Arrived

Flight Plot

Page will automatically refresh every two minutes.

Flight plan parsing failed; only flown route is shown


Map Options




Map Legend


Flown Route
Filed Route
Departure Airport
Arrival Airport
Navaid (VOR, NDB)
Fix

Horizontal Profiles

Position Reports

Time Latitude Longitude Heading Altitude Ground
Speed
10-Jul-18 16:26 46.914995 -114.077864 132 3212ft 0kts
10-Jul-18 16:27 46.914995 -114.077864 132 3212ft 0kts
10-Jul-18 16:28 46.914995 -114.077864 132 3212ft 0kts
10-Jul-18 16:29 46.914995 -114.077864 132 3212ft 0kts
10-Jul-18 16:30 46.914995 -114.077864 132 3212ft 0kts
10-Jul-18 16:31 46.914995 -114.077864 132 3212ft 0kts
10-Jul-18 16:32 46.914995 -114.077864 132 3212ft 0kts
10-Jul-18 16:33 46.914995 -114.077864 132 3212ft 0kts
10-Jul-18 16:34 46.914995 -114.077864 132 3212ft 0kts
10-Jul-18 16:35 46.914995 -114.077864 132 3212ft 0kts
10-Jul-18 16:36 46.914995 -114.077864 132 3212ft 0kts
10-Jul-18 16:37 46.914995 -114.077864 132 3212ft 0kts
10-Jul-18 16:38 46.914995 -114.077864 132 3212ft 0kts
10-Jul-18 16:39 46.914995 -114.077864 132 3212ft 0kts
10-Jul-18 16:40 46.914995 -114.077864 132 3212ft 0kts
10-Jul-18 16:41 46.914995 -114.077864 132 3212ft 0kts
10-Jul-18 16:42 46.914995 -114.077864 132 3212ft 0kts
10-Jul-18 16:43 46.914995 -114.077864 132 3212ft 0kts
10-Jul-18 16:44 46.914995 -114.077864 132 3212ft 0kts
10-Jul-18 16:45 46.915281 -114.078286 284 3212ft 12kts
10-Jul-18 16:46 46.915354 -114.080645 270 3211ft 0kts
10-Jul-18 16:47 46.913126 -114.082816 132 3212ft 17kts
10-Jul-18 16:48 46.909234 -114.077184 179 3212ft 17kts
10-Jul-18 16:49 46.908933 -114.077180 180 3212ft 0kts
10-Jul-18 16:50 46.908851 -114.077181 181 3211ft 7kts
10-Jul-18 16:51 46.917119 -114.093207 307 3339ft 162kts
10-Jul-18 16:52 46.952102 -114.154535 307 7067ft 222kts
10-Jul-18 16:53 46.932789 -114.197454 136 11599ft 265kts
10-Jul-18 16:54 46.916579 -114.079021 111 13827ft 323kts
10-Jul-18 16:55 46.889033 -113.941980 102 13741ft 383kts
10-Jul-18 16:56 46.869094 -113.791219 102 13910ft 371kts
10-Jul-18 16:57 46.848887 -113.640861 102 16428ft 387kts
10-Jul-18 16:58 46.827492 -113.483662 103 18954ft 404kts
10-Jul-18 16:59 46.805011 -113.320372 104 21182ft 420kts
10-Jul-18 17:00 46.781427 -113.150998 104 23685ft 438kts
10-Jul-18 17:01 46.756507 -112.974057 105 25948ft 456kts
10-Jul-18 17:02 46.730311 -112.790191 107 27908ft 473kts
10-Jul-18 17:03 46.702655 -112.599232 107 29052ft 502kts
10-Jul-18 17:04 46.673331 -112.398788 107 29015ft 508kts
10-Jul-18 17:05 46.643795 -112.199390 107 29008ft 505kts
10-Jul-18 17:06 46.614032 -112.001103 107 29009ft 502kts
10-Jul-18 17:07 46.609323 -111.795914 93 29011ft 510kts
10-Jul-18 17:08 46.610718 -111.590656 93 29013ft 510kts
10-Jul-18 17:09 46.612264 -111.384394 93 29015ft 510kts
10-Jul-18 17:10 46.613513 -111.180081 94 29012ft 509kts
10-Jul-18 17:11 46.614406 -110.975121 93 29004ft 509kts
10-Jul-18 17:12 46.614914 -110.770936 93 26903ft 509kts
10-Jul-18 17:13 46.588205 -110.580203 132 24045ft 453kts
10-Jul-18 17:14 46.521344 -110.443054 130 24028ft 401kts
10-Jul-18 17:15 46.460983 -110.312170 130 23939ft 384kts
10-Jul-18 17:16 46.401445 -110.181912 129 20750ft 394kts
10-Jul-18 17:17 46.340784 -110.049137 128 18113ft 399kts
10-Jul-18 17:18 46.280404 -109.917377 127 16058ft 378kts
10-Jul-18 17:19 46.224552 -109.796053 128 16059ft 359kts
10-Jul-18 17:20 46.176998 -109.672146 119 15094ft 353kts
10-Jul-18 17:21 46.139272 -109.544690 110 12362ft 342kts
10-Jul-18 17:22 46.110425 -109.417816 108 10097ft 307kts
10-Jul-18 17:23 46.086978 -109.313395 107 9095ft 266kts
10-Jul-18 17:24 46.065089 -109.216036 105 7977ft 228kts
10-Jul-18 17:25 46.047055 -109.135634 106 8024ft 231kts
10-Jul-18 17:26 46.026831 -109.046105 105 6116ft 245kts
10-Jul-18 17:27 46.006565 -108.955471 104 5994ft 243kts
10-Jul-18 17:28 45.986300 -108.861242 104 5993ft 250kts
10-Jul-18 17:29 45.965761 -108.765165 104 5993ft 254kts
10-Jul-18 17:30 45.945068 -108.667934 104 5993ft 256kts
10-Jul-18 17:31 45.924416 -108.570521 104 5993ft 257kts
10-Jul-18 17:32 45.903712 -108.472587 103 5961ft 243kts
10-Jul-18 17:33 45.885300 -108.388751 110 5290ft 209kts
10-Jul-18 17:34 45.840467 -108.333988 140 5291ft 220kts
10-Jul-18 17:35 45.786170 -108.312456 200 5296ft 223kts
10-Jul-18 17:36 45.759898 -108.371675 296 5296ft 170kts
10-Jul-18 17:37 45.777718 -108.429100 296 4968ft 157kts
10-Jul-18 17:38 45.792740 -108.483066 297 4167ft 130kts
10-Jul-18 17:39 45.805079 -108.527470 294 3658ft 95kts
10-Jul-18 17:40 45.806690 -108.537624 201 3658ft 0kts
10-Jul-18 17:41 45.804907 -108.540208 199 3658ft 8kts
10-Jul-18 17:42 45.804286 -108.539874 6 3658ft 0kts
10-Jul-18 17:43 45.804286 -108.539874 6 3658ft 0kts
10-Jul-18 17:44 45.804286 -108.539874 6 3658ft 0kts
10-Jul-18 17:45 45.804286 -108.539874 6 3658ft 0kts
10-Jul-18 17:46 45.804286 -108.539874 6 3658ft 0kts
10-Jul-18 17:47 45.804286 -108.539874 6 3658ft 0kts

Navigation Log

Ident Type
Flight plan parsing failed, navigation log unavailable